Time;durP1;ratioP1;P1;durP2;ratioP2;P2;SDS_P1;SDS_P2;PMS_P1;PMS_P2;Temp;Humidity;BMP_temperature;BMP_pressure;BME280_temperature;BME280_humidity;BME280_pressure;Samples;Min_cycle;Max_cycle;Signal;HPM_P1;HPM_P2
2022/03/28 00:02:23;;;;;;;;;;;;;;;12.54;100.00;99983.91;5064559;28;20345;-61
2022/03/28 00:04:50;;;;;;;;;;;;;;;13.06;100.00;99975.69;5064988;28;20304;-61
2022/03/28 00:07:15;;;;;;;;;;;;;;;12.81;100.00;99972.91;5065602;28;19916;-61
2022/03/28 00:09:41;;;;;;;;;;;;;;;13.00;100.00;99970.69;5065462;28;20693;-60
2022/03/28 00:12:06;;;;;;;;;;;;;;;13.17;100.00;99963.31;5065989;28;19939;-61
2022/03/28 00:14:32;;;;;;;;;;;;;;;13.04;100.00;99961.97;5066345;28;19917;-61
2022/03/28 00:16:57;;;;;;;;;;;;;;;12.49;100.00;99965.06;5064918;28;19920;-60
2022/03/28 00:19:23;;;;;;;;;;;;;;;12.44;100.00;99958.31;5064709;28;19916;-60
2022/03/28 00:21:48;;;;;;;;;;;;;;;11.96;100.00;99953.41;5065465;28;19959;-60
2022/03/28 00:24:13;;;;;;;;;;;;;;;11.88;100.00;99963.88;5065377;28;20031;-60
2022/03/28 00:26:38;;;;;;;;;;;;;;;11.67;100.00;99955.69;5064761;28;19925;-60
2022/03/28 00:29:04;;;;;;;;;;;;;;;11.96;100.00;99954.25;5064789;28;19920;-60
2022/03/28 00:31:30;;;;;;;;;;;;;;;11.94;100.00;99956.03;5066097;28;19956;-60
2022/03/28 00:33:55;;;;;;;;;;;;;;;11.69;100.00;99951.34;5065446;28;19920;-60
2022/03/28 00:36:20;;;;;;;;;;;;;;;11.63;100.00;99951.50;5066266;28;20019;-60
2022/03/28 00:38:46;;;;;;;;;;;;;;;11.59;100.00;99938.69;5065964;28;19966;-60
2022/03/28 00:41:11;;;;;;;;;;;;;;;11.87;100.00;99944.09;5066258;28;19920;-60
2022/03/28 00:43:42;;;;;;;;;;;;;;;11.76;100.00;99946.06;5065815;28;19943;-60
2022/03/28 00:46:07;;;;;;;;;;;;;;;11.58;100.00;99937.81;5064625;28;19921;-61
2022/03/28 00:48:32;;;;;;;;;;;;;;;11.52;100.00;99937.97;5048807;28;20405;-61
2022/03/28 00:50:58;;;;;;;;;;;;;;;11.54;100.00;99941.38;5070763;28;20377;-61
2022/03/28 00:53:24;;;;;;;;;;;;;;;11.33;100.00;99931.47;5052813;28;19920;-61
2022/03/28 00:55:49;;;;;;;;;;;;;;;11.27;100.00;99933.31;5072267;28;20565;-61
2022/03/28 00:58:14;;;;;;;;;;;;;;;11.26;100.00;99934.19;5051728;28;19966;-61
2022/03/28 01:00:40;;;;;;;;;;;;;;;11.30;100.00;99937.56;5071603;28;19955;-60
2022/03/28 01:03:05;;;;;;;;;;;;;;;11.23;100.00;99936.81;5071863;28;19935;-60
2022/03/28 01:05:31;;;;;;;;;;;;;;;11.11;100.00;99934.50;5071623;28;20283;-60
2022/03/28 01:07:56;;;;;;;;;;;;;;;11.14;100.00;99937.00;5070813;28;19920;-60
2022/03/28 01:10:21;;;;;;;;;;;;;;;11.13;100.00;99925.00;5069676;28;20007;-60
2022/03/28 01:12:47;;;;;;;;;;;;;;;11.71;100.00;99922.94;5074102;28;19920;-62
2022/03/28 01:15:13;;;;;;;;;;;;;;;11.06;100.00;99921.69;5073015;28;19958;-61
2022/03/28 01:20:26;;;;;;;;;;;;;;;12.38;100.00;99912.81;5073198;28;20459;-60
2022/03/28 01:22:52;;;;;;;;;;;;;;;12.71;100.00;99899.94;5069950;28;19916;-62
2022/03/28 01:25:20;;;;;;;;;;;;;;;12.63;100.00;99905.28;5068942;28;19938;-61
2022/03/28 01:27:45;;;;;;;;;;;;;;;12.66;100.00;99904.38;5069171;28;19955;-62
2022/03/28 01:30:10;;;;;;;;;;;;;;;12.20;100.00;99895.19;5051417;28;19967;-62
2022/03/28 01:32:36;;;;;;;;;;;;;;;12.69;100.00;99894.78;5069564;28;20358;-62
2022/03/28 01:35:01;;;;;;;;;;;;;;;12.84;100.00;99884.91;5077208;28;19916;-58
2022/03/28 01:37:26;;;;;;;;;;;;;;;12.34;100.00;99877.63;5080146;28;20022;-58
2022/03/28 01:39:52;;;;;;;;;;;;;;;12.67;100.00;99869.88;5074262;28;19917;-64
2022/03/28 01:42:17;;;;;;;;;;;;;;;12.81;100.00;99867.75;5068855;28;20632;-64
2022/03/28 01:44:43;;;;;;;;;;;;;;;12.79;100.00;99869.53;5068974;28;19977;-64
2022/03/28 01:47:08;;;;;;;;;;;;;;;12.10;100.00;99867.00;5068096;28;19920;-64
2022/03/28 01:49:33;;;;;;;;;;;;;;;12.07;100.00;99859.34;5067989;28;19920;-64
2022/03/28 01:51:58;;;;;;;;;;;;;;;12.50;100.00;99863.44;5068617;28;19920;-64
2022/03/28 01:54:24;;;;;;;;;;;;;;;12.90;100.00;99862.34;5067721;28;20019;-64
2022/03/28 01:56:49;;;;;;;;;;;;;;;12.93;100.00;99859.69;5068713;28;19916;-64
2022/03/28 01:59:14;;;;;;;;;;;;;;;12.88;100.00;99858.94;5068097;28;19920;-64
2022/03/28 02:01:40;;;;;;;;;;;;;;;12.77;100.00;99853.22;5067678;28;19966;-64
2022/03/28 02:04:05;;;;;;;;;;;;;;;12.18;100.00;99847.88;5067158;28;19920;-64
2022/03/28 02:06:32;;;;;;;;;;;;;;;12.73;100.00;99841.28;5068574;28;19931;-64
2022/03/28 02:08:58;;;;;;;;;;;;;;;12.70;100.00;99846.53;5067020;28;20019;-64
2022/03/28 02:11:23;;;;;;;;;;;;;;;12.73;100.00;99839.56;5067826;28;20023;-64
2022/03/28 02:13:48;;;;;;;;;;;;;;;12.90;100.00;99835.66;5067795;28;20015;-64
2022/03/28 02:16:13;;;;;;;;;;;;;;;12.22;100.00;99837.44;5067981;28;20384;-64
2022/03/28 02:18:39;;;;;;;;;;;;;;;12.18;100.00;99834.97;5066592;28;19920;-64
2022/03/28 02:21:05;;;;;;;;;;;;;;;12.35;100.00;99843.16;5067969;28;19942;-64
2022/03/28 02:23:30;;;;;;;;;;;;;;;11.72;100.00;99832.59;5067448;28;19927;-64
2022/03/28 02:25:56;;;;;;;;;;;;;;;11.17;100.00;99836.38;5067679;28;19928;-64
2022/03/28 02:28:21;;;;;;;;;;;;;;;10.73;100.00;99833.00;5067108;28;19935;-64
2022/03/28 02:30:47;;;;;;;;;;;;;;;10.88;100.00;99832.69;5067075;28;19924;-64
2022/03/28 02:33:12;;;;;;;;;;;;;;;11.37;100.00;99828.22;5067570;28;19923;-64
2022/03/28 02:35:37;;;;;;;;;;;;;;;12.13;100.00;99833.38;5068312;28;19916;-64
2022/03/28 02:38:03;;;;;;;;;;;;;;;12.29;100.00;99827.78;5067438;28;19923;-63
2022/03/28 02:40:28;;;;;;;;;;;;;;;12.46;100.00;99824.78;5067433;28;19921;-64
2022/03/28 02:42:57;;;;;;;;;;;;;;;12.68;100.00;99820.75;5066555;28;19954;-63
2022/03/28 02:45:22;;;;;;;;;;;;;;;12.54;100.00;99812.50;5066610;28;20455;-63
2022/03/28 02:47:48;;;;;;;;;;;;;;;12.06;100.00;99808.56;5067221;28;19923;-64
2022/03/28 02:50:13;;;;;;;;;;;;;;;11.36;100.00;99807.63;5067052;28;20017;-64
2022/03/28 02:52:38;;;;;;;;;;;;;;;11.10;100.00;99807.31;5066600;28;19920;-64
2022/03/28 02:55:04;;;;;;;;;;;;;;;11.22;100.00;99803.66;5067377;28;20393;-64
2022/03/28 02:57:29;;;;;;;;;;;;;;;12.00;100.00;99801.00;5066951;28;19924;-64
2022/03/28 02:59:55;;;;;;;;;;;;;;;10.80;100.00;99793.34;5066767;28;19924;-63
2022/03/28 03:02:20;;;;;;;;;;;;;;;10.78;100.00;99794.25;5065919;28;19924;-64
2022/03/28 03:04:45;;;;;;;;;;;;;;;11.45;100.00;99791.97;5066698;28;20381;-64
2022/03/28 03:07:11;;;;;;;;;;;;;;;11.61;100.00;99787.28;5066680;28;19916;-63
2022/03/28 03:09:36;;;;;;;;;;;;;;;12.54;100.00;99792.69;5048818;28;19955;-63
2022/03/28 03:12:01;;;;;;;;;;;;;;;12.78;100.00;99777.38;5048380;28;19928;-64
2022/03/28 03:14:27;;;;;;;;;;;;;;;12.86;100.00;99772.00;5066282;28;20722;-63
2022/03/28 03:16:53;;;;;;;;;;;;;;;12.66;100.00;99770.00;5065922;28;19924;-64
2022/03/28 03:19:18;;;;;;;;;;;;;;;12.59;100.00;99768.44;5066402;28;19920;-63
2022/03/28 03:21:45;;;;;;;;;;;;;;;12.79;100.00;99760.97;5066598;28;19928;-64
2022/03/28 03:24:11;;;;;;;;;;;;;;;12.63;100.00;99764.91;5066420;28;19932;-63
2022/03/28 03:26:37;;;;;;;;;;;;;;;12.77;100.00;99752.41;5066662;28;19920;-63
2022/03/28 03:29:03;;;;;;;;;;;;;;;12.79;100.00;99753.22;5066274;28;20302;-63
2022/03/28 03:31:28;;;;;;;;;;;;;;;12.72;100.00;99746.53;5066779;28;19925;-64
2022/03/28 03:33:53;;;;;;;;;;;;;;;12.62;100.00;99748.56;5067231;28;19920;-64
2022/03/28 03:36:19;;;;;;;;;;;;;;;12.78;100.00;99738.63;5066315;28;19935;-64
2022/03/28 03:38:45;;;;;;;;;;;;;;;12.56;100.00;99748.72;5064553;28;19917;-64
2022/03/28 03:41:10;;;;;;;;;;;;;;;12.68;100.00;99744.94;5048492;28;20302;-64
2022/03/28 03:43:35;;;;;;;;;;;;;;;12.14;100.00;99746.44;5065623;28;19920;-64
2022/03/28 03:46:01;;;;;;;;;;;;;;;11.78;100.00;99737.84;5065743;28;19921;-64
2022/03/28 03:48:27;;;;;;;;;;;;;;;12.40;100.00;99737.13;5065560;28;19924;-63
2022/03/28 03:50:53;;;;;;;;;;;;;;;12.64;100.00;99735.59;5065132;28;19935;-63
2022/03/28 03:53:19;;;;;;;;;;;;;;;12.43;100.00;99737.03;5048004;28;19999;-64
2022/03/28 03:55:45;;;;;;;;;;;;;;;12.68;100.00;99732.00;5065727;28;19920;-63
2022/03/28 03:58:11;;;;;;;;;;;;;;;12.69;100.00;99729.38;5066147;28;19966;-63
2022/03/28 04:00:36;;;;;;;;;;;;;;;11.87;100.00;99730.75;5065168;28;19920;-64
2022/03/28 04:03:01;;;;;;;;;;;;;;;12.42;100.00;99733.59;5065562;28;19936;-63
2022/03/28 04:05:27;;;;;;;;;;;;;;;12.46;100.00;99735.22;5065749;28;19920;-63
2022/03/28 04:07:52;;;;;;;;;;;;;;;12.51;100.00;99725.59;5065786;28;20361;-64
2022/03/28 04:10:18;;;;;;;;;;;;;;;12.58;100.00;99730.59;5065396;28;19927;-63
2022/03/28 04:12:43;;;;;;;;;;;;;;;12.20;100.00;99729.91;5064540;28;20626;-64
2022/03/28 04:15:10;;;;;;;;;;;;;;;12.62;100.00;99732.22;5065887;28;20011;-63
2022/03/28 04:17:39;;;;;;;;;;;;;;;12.72;100.00;99723.28;5065367;28;19959;-64
2022/03/28 04:20:05;;;;;;;;;;;;;;;12.61;100.00;99725.31;5066026;28;19931;-63
2022/03/28 04:22:30;;;;;;;;;;;;;;;12.74;100.00;99729.25;5065744;28;19920;-64
2022/03/28 04:24:55;;;;;;;;;;;;;;;12.58;100.00;99730.59;5065398;28;19990;-63
2022/03/28 04:27:21;;;;;;;;;;;;;;;12.31;100.00;99736.47;5065493;28;19979;-63
2022/03/28 04:29:46;;;;;;;;;;;;;;;12.06;100.00;99738.03;5065798;28;19948;-63
2022/03/28 04:32:12;;;;;;;;;;;;;;;10.95;100.00;99734.63;5066347;28;20283;-63
2022/03/28 04:34:37;;;;;;;;;;;;;;;11.68;100.00;99738.09;5067105;28;19943;-64
2022/03/28 04:37:02;;;;;;;;;;;;;;;11.93;100.00;99743.50;5066082;28;19921;-63
2022/03/28 04:39:28;;;;;;;;;;;;;;;11.27;100.00;99737.34;5047261;28;20414;-63
2022/03/28 04:41:53;;;;;;;;;;;;;;;12.46;100.00;99737.81;5066546;28;19916;-63
2022/03/28 04:44:18;;;;;;;;;;;;;;;12.58;100.00;99738.34;5065128;28;19927;-63
2022/03/28 04:46:44;;;;;;;;;;;;;;;12.61;100.00;99731.34;5065768;28;19923;-64
2022/03/28 04:49:13;;;;;;;;;;;;;;;12.83;100.00;99734.16;5066131;28;19952;-64
2022/03/28 04:51:38;;;;;;;;;;;;;;;12.84;100.00;99733.28;5065598;28;19970;-64
2022/03/28 04:54:04;;;;;;;;;;;;;;;12.77;100.00;99731.75;5065793;28;19963;-64
2022/03/28 04:56:29;;;;;;;;;;;;;;;12.67;100.00;99720.84;5064522;28;19931;-64
2022/03/28 04:58:54;;;;;;;;;;;;;;;12.08;100.00;99719.00;5064862;28;20009;-64
2022/03/28 05:01:19;;;;;;;;;;;;;;;11.70;100.00;99722.59;5064980;28;20016;-64
2022/03/28 05:03:45;;;;;;;;;;;;;;;11.83;100.00;99720.53;5066226;28;19988;-64
2022/03/28 05:06:10;;;;;;;;;;;;;;;11.65;100.00;99725.25;5066065;28;19934;-64
2022/03/28 05:08:36;;;;;;;;;;;;;;;11.47;100.00;99720.53;5065699;28;20432;-64
2022/03/28 05:11:01;;;;;;;;;;;;;;;12.11;100.00;99713.78;5065532;28;19924;-63
2022/03/28 05:13:27;;;;;;;;;;;;;;;12.27;100.00;99719.38;5065884;28;19920;-65
2022/03/28 05:15:52;;;;;;;;;;;;;;;12.23;100.00;99710.03;5065608;28;19916;-65
2022/03/28 05:18:18;;;;;;;;;;;;;;;12.24;100.00;99710.88;5066532;28;19920;-65
2022/03/28 05:20:43;;;;;;;;;;;;;;;12.27;100.00;99697.84;5066007;28;20282;-65
2022/03/28 05:23:08;;;;;;;;;;;;;;;12.29;100.00;99701.25;5066089;28;19920;-65
2022/03/28 05:25:34;;;;;;;;;;;;;;;11.65;100.00;99702.03;5065593;28;19912;-65
2022/03/28 05:27:59;;;;;;;;;;;;;;;12.06;100.00;99702.72;5065711;28;19917;-64
2022/03/28 05:30:24;;;;;;;;;;;;;;;11.62;100.00;99706.44;5065778;28;19967;-65
2022/03/28 05:32:50;;;;;;;;;;;;;;;11.30;100.00;99711.47;5066689;28;20340;-64
2022/03/28 05:35:16;;;;;;;;;;;;;;;11.68;100.00;99714.88;5065915;28;20951;-63
2022/03/28 05:37:42;;;;;;;;;;;;;;;10.94;100.00;99707.16;5050660;28;20397;-65
2022/03/28 05:40:08;;;;;;;;;;;;;;;11.26;100.00;99709.84;5051438;28;19916;-64
2022/03/28 05:42:34;;;;;;;;;;;;;;;11.09;100.00;99710.25;5034332;28;19919;-64
2022/03/28 05:44:59;;;;;;;;;;;;;;;11.45;100.00;99710.28;5068961;28;19916;-64
2022/03/28 05:47:24;;;;;;;;;;;;;;;11.33;100.00;99713.13;5069185;28;20298;-64
2022/03/28 05:49:49;;;;;;;;;;;;;;;11.17;100.00;99717.78;5068889;28;19924;-64
2022/03/28 05:52:15;;;;;;;;;;;;;;;11.50;100.00;99721.31;5069017;28;19921;-64
2022/03/28 05:54:40;;;;;;;;;;;;;;;11.74;100.00;99724.16;5069054;28;19923;-64
2022/03/28 05:57:05;;;;;;;;;;;;;;;11.72;100.00;99719.06;5068740;28;19920;-64
2022/03/28 05:59:31;;;;;;;;;;;;;;;11.98;100.00;99725.31;5068957;28;19931;-64
2022/03/28 06:01:56;;;;;;;;;;;;;;;12.33;100.00;99721.78;5069538;28;19924;-64
2022/03/28 06:04:22;;;;;;;;;;;;;;;12.57;100.00;99714.25;5068864;28;19966;-64
2022/03/28 06:06:47;;;;;;;;;;;;;;;12.13;100.00;99717.19;5068958;28;20002;-64
2022/03/28 06:09:13;;;;;;;;;;;;;;;12.49;100.00;99717.03;5068629;28;19912;-64
2022/03/28 06:11:38;;;;;;;;;;;;;;;12.51;100.00;99720.41;5068321;28;19921;-64
2022/03/28 06:14:04;;;;;;;;;;;;;;;12.65;100.00;99711.44;5068602;28;19916;-64
2022/03/28 06:16:29;;;;;;;;;;;;;;;12.85;100.00;99714.28;5068601;28;19963;-64
2022/03/28 06:18:54;;;;;;;;;;;;;;;12.78;100.00;99712.78;5068060;28;19922;-64
2022/03/28 06:21:20;;;;;;;;;;;;;;;12.78;100.00;99720.53;5068729;28;19913;-64
2022/03/28 06:23:45;;;;;;;;;;;;;;;13.16;100.00;99718.53;5069027;28;19912;-64
2022/03/28 06:26:10;;;;;;;;;;;;;;;12.94;100.00;99708.81;5068430;28;19924;-64
2022/03/28 06:28:36;;;;;;;;;;;;;;;12.95;100.00;99709.66;5067894;28;19948;-65
2022/03/28 06:31:02;;;;;;;;;;;;;;;13.40;100.00;99706.56;5068104;28;19916;-64
2022/03/28 06:33:27;;;;;;;;;;;;;;;13.61;100.00;99707.59;5068009;28;20388;-64
2022/03/28 06:35:53;;;;;;;;;;;;;;;13.52;100.00;99700.16;5068839;28;19916;-64
2022/03/28 06:38:18;;;;;;;;;;;;;;;13.50;100.00;99704.53;5068087;28;19927;-64
2022/03/28 06:40:44;;;;;;;;;;;;;;;13.78;100.00;99702.72;5068029;28;20294;-64
2022/03/28 06:43:09;;;;;;;;;;;;;;;14.01;100.00;99703.69;5067773;28;19984;-65
2022/03/28 06:45:36;;;;;;;;;;;;;;;13.92;100.00;99697.06;5068356;28;20431;-64
2022/03/28 06:48:01;;;;;;;;;;;;;;;13.62;100.00;99696.38;5067323;28;19920;-64
2022/03/28 06:50:27;;;;;;;;;;;;;;;13.90;100.00;99700.63;5068299;28;19943;-64
2022/03/28 06:52:52;;;;;;;;;;;;;;;14.07;100.00;99698.31;5067606;28;20366;-64
2022/03/28 06:55:18;;;;;;;;;;;;;;;14.23;100.00;99693.38;5067668;28;19916;-64
2022/03/28 06:57:44;;;;;;;;;;;;;;;14.34;100.00;99685.25;5067448;28;20404;-64
2022/03/28 07:00:13;;;;;;;;;;;;;;;14.52;100.00;99692.34;5067454;28;20287;-65
2022/03/28 07:02:38;;;;;;;;;;;;;;;14.47;100.00;99694.25;5067429;28;20077;-65
2022/03/28 07:05:04;;;;;;;;;;;;;;;14.87;100.00;99687.63;5067328;28;20007;-65
2022/03/28 07:07:37;;;;;;;;;;;;;;;14.75;100.00;99682.88;5067326;28;19927;-64
2022/03/28 07:10:03;;;;;;;;;;;;;;;15.09;100.00;99685.00;5067262;28;20290;-65
2022/03/28 07:12:28;;;;;;;;;;;;;;;14.98;100.00;99680.25;5067657;28;19916;-64
2022/03/28 07:14:53;;;;;;;;;;;;;;;15.48;100.00;99677.34;5067381;28;19912;-64
2022/03/28 07:17:19;;;;;;;;;;;;;;;15.43;100.00;99668.09;5067220;28;20386;-64
2022/03/28 07:19:46;;;;;;;;;;;;;;;15.06;100.00;99675.59;5066751;28;19917;-64
2022/03/28 07:22:11;;;;;;;;;;;;;;;16.03;100.00;99673.34;5067331;28;19920;-64
2022/03/28 07:24:37;;;;;;;;;;;;;;;15.73;100.00;99670.34;5067017;28;19919;-64
2022/03/28 07:27:02;;;;;;;;;;;;;;;16.11;100.00;99666.09;5066818;28;19916;-64
2022/03/28 07:29:28;;;;;;;;;;;;;;;16.00;100.00;99669.16;5067372;28;19905;-64
2022/03/28 07:31:54;;;;;;;;;;;;;;;15.85;100.00;99665.47;5067101;28;19927;-63
2022/03/28 07:34:32;;;;;;;;;;;;;;;15.34;100.00;99664.09;5066986;28;19923;-64
2022/03/28 07:36:58;;;;;;;;;;;;;;;16.52;100.00;99665.97;5067505;28;20370;-64
2022/03/28 07:39:25;;;;;;;;;;;;;;;16.41;100.00;99655.22;5066530;28;19937;-64
2022/03/28 07:41:50;;;;;;;;;;;;;;;16.95;100.00;99650.16;5066841;28;19917;-64
2022/03/28 07:44:16;;;;;;;;;;;;;;;17.20;100.00;99644.63;5066454;28;19920;-64
2022/03/28 07:46:41;;;;;;;;;;;;;;;16.71;100.00;99640.78;5066893;28;19916;-64
2022/03/28 07:49:10;;;;;;;;;;;;;;;15.47;100.00;99651.47;5066249;28;19919;-63
2022/03/28 07:51:35;;;;;;;;;;;;;;;15.12;100.00;99658.97;5066552;28;20374;-63
2022/03/28 07:54:00;;;;;;;;;;;;;;;15.82;100.00;99660.38;5066305;28;19965;-63
2022/03/28 07:56:26;;;;;;;;;;;;;;;16.21;100.00;99650.91;5067030;28;19912;-65
2022/03/28 07:58:51;;;;;;;;;;;;;;;16.46;100.00;99650.66;5065756;28;20441;-63
2022/03/28 08:01:16;;;;;;;;;;;;;;;16.13;100.00;99650.44;5066994;28;19929;-65
2022/03/28 08:03:42;;;;;;;;;;;;;;;16.27;100.00;99650.66;5066387;28;20394;-63
2022/03/28 08:06:08;;;;;;;;;;;;;;;14.71;100.00;99647.59;5066574;28;19987;-64
2022/03/28 08:08:35;;;;;;;;;;;;;;;14.60;100.00;99654.06;5066358;28;19916;-65
2022/03/28 08:11:00;;;;;;;;;;;;;;;15.47;100.00;99652.31;5066494;28;20044;-64
2022/03/28 08:13:26;;;;;;;;;;;;;;;15.23;100.00;99653.31;5067882;28;20423;-64
2022/03/28 08:15:51;;;;;;;;;;;;;;;14.96;100.00;99647.50;5067973;28;19920;-64
2022/03/28 08:18:16;;;;;;;;;;;;;;;15.90;100.00;99652.28;5067663;28;19917;-64
2022/03/28 08:20:43;;;;;;;;;;;;;;;14.59;100.00;99636.78;5068385;28;19916;-64
2022/03/28 08:23:08;;;;;;;;;;;;;;;14.27;100.00;99642.31;5068066;28;19912;-64
2022/03/28 08:25:34;;;;;;;;;;;;;;;14.68;100.00;99642.53;5066870;28;19920;-64
2022/03/28 08:27:59;;;;;;;;;;;;;;;14.94;100.00;99644.97;5067684;28;20863;-65
2022/03/28 08:30:24;;;;;;;;;;;;;;;14.74;100.00;99642.31;5067851;28;19923;-64
2022/03/28 08:32:50;;;;;;;;;;;;;;;15.20;100.00;99637.88;5070070;28;20617;-64
2022/03/28 08:35:15;;;;;;;;;;;;;;;14.95;100.00;99636.28;5069117;28;19956;-63
2022/03/28 08:37:40;;;;;;;;;;;;;;;15.43;100.00;99627.38;5068222;28;19924;-64
2022/03/28 08:40:06;;;;;;;;;;;;;;;15.25;100.00;99638.53;5069870;28;19965;-64
2022/03/28 08:42:33;;;;;;;;;;;;;;;15.42;100.00;99636.09;5069421;28;19920;-64
2022/03/28 08:44:58;;;;;;;;;;;;;;;15.33;100.00;99628.69;5069254;28;20305;-64
2022/03/28 08:47:24;;;;;;;;;;;;;;;15.91;100.00;99627.97;5067683;28;19913;-64
2022/03/28 08:49:49;;;;;;;;;;;;;;;15.79;100.00;99618.97;5070048;28;20366;-64
2022/03/28 08:52:16;;;;;;;;;;;;;;;15.48;100.00;99635.81;5069542;28;19920;-60
2022/03/28 08:54:41;;;;;;;;;;;;;;;15.55;100.00;99620.84;5071165;28;19939;-58
2022/03/28 08:57:07;;;;;;;;;;;;;;;15.93;100.00;99620.13;5071074;28;19913;-60
2022/03/28 08:59:32;;;;;;;;;;;;;;;15.77;100.00;99618.19;5067108;28;19913;-61
2022/03/28 09:01:57;;;;;;;;;;;;;;;15.23;100.00;99629.97;5066595;28;19924;-61
2022/03/28 09:04:22;;;;;;;;;;;;;;;15.48;100.00;99622.84;5066792;28;19966;-61
2022/03/28 09:06:48;;;;;;;;;;;;;;;15.76;100.00;99619.13;5066002;28;19916;-65
2022/03/28 09:09:29;;;;;;;;;;;;;;;16.28;100.00;99621.13;5066046;28;19956;-62
2022/03/28 09:11:55;;;;;;;;;;;;;;;16.22;100.00;99616.25;5068968;28;19927;-63
2022/03/28 09:14:30;;;;;;;;;;;;;;;15.64;100.00;99619.59;5069502;28;19919;-63
2022/03/28 09:16:58;;;;;;;;;;;;;;;15.93;100.00;99614.94;5069343;28;20342;-65
2022/03/28 09:19:23;;;;;;;;;;;;;;;16.42;100.00;99623.09;5069127;28;19913;-62
2022/03/28 09:21:52;;;;;;;;;;;;;;;16.59;100.00;99619.75;5069506;28;19920;-61
2022/03/28 09:24:17;;;;;;;;;;;;;;;16.17;100.00;99620.78;5069666;28;19923;-62
2022/03/28 09:26:42;;;;;;;;;;;;;;;16.26;100.00;99618.63;5069190;28;19912;-61
2022/03/28 09:29:07;;;;;;;;;;;;;;;16.99;100.00;99612.66;5069259;28;19913;-63
2022/03/28 09:31:38;;;;;;;;;;;;;;;17.03;100.00;99607.22;5070198;28;20388;-63
2022/03/28 09:34:08;;;;;;;;;;;;;;;16.87;100.00;99594.13;5069212;28;20339;-64
2022/03/28 09:36:51;;;;;;;;;;;;;;;16.54;100.00;99601.75;5069457;28;20019;-63
2022/03/28 09:39:22;;;;;;;;;;;;;;;16.38;100.00;99590.38;5068992;28;19912;-65
2022/03/28 09:42:04;;;;;;;;;;;;;;;16.73;100.00;99594.75;5069013;28;20423;-64
2022/03/28 09:44:32;;;;;;;;;;;;;;;16.92;100.00;99593.88;5069258;28;19948;-63
2022/03/28 09:47:08;;;;;;;;;;;;;;;16.54;100.00;99595.72;5070324;28;19917;-63
2022/03/28 09:49:33;;;;;;;;;;;;;;;16.87;100.00;99590.69;5070007;28;19955;-63
2022/03/28 09:52:03;;;;;;;;;;;;;;;16.66;100.00;99592.53;5069273;28;19968;-64
2022/03/28 09:54:30;;;;;;;;;;;;;;;17.41;100.00;99582.81;5069650;28;19919;-63
2022/03/28 09:57:08;;;;;;;;;;;;;;;16.65;100.00;99583.88;5069053;28;19927;-63
2022/03/28 09:59:40;;;;;;;;;;;;;;;16.95;100.00;99572.94;5050785;28;19919;-63
2022/03/28 10:02:15;;;;;;;;;;;;;;;17.02;100.00;99576.94;5068496;28;20306;-62
2022/03/28 10:04:41;;;;;;;;;;;;;;;16.87;100.00;99569.88;5068674;28;20328;-65
2022/03/28 10:07:06;;;;;;;;;;;;;;;16.90;100.00;99578.38;5068551;28;19916;-63
2022/03/28 10:09:31;;;;;;;;;;;;;;;17.30;100.00;99567.75;5068073;28;19920;-64
2022/03/28 10:11:57;;;;;;;;;;;;;;;17.03;100.00;99568.19;5068539;28;19920;-62
2022/03/28 10:14:22;;;;;;;;;;;;;;;17.59;100.00;99562.81;5050090;28;19923;-61
2022/03/28 10:16:48;;;;;;;;;;;;;;;17.01;100.00;99572.63;5068360;28;20324;-62
2022/03/28 10:19:13;;;;;;;;;;;;;;;17.40;100.00;99574.16;5069537;28;19928;-62
2022/03/28 10:21:38;;;;;;;;;;;;;;;17.37;100.00;99561.28;5068004;28;19916;-63
2022/03/28 10:24:08;;;;;;;;;;;;;;;18.07;100.00;99555.97;5050422;28;20367;-61
2022/03/28 10:26:35;;;;;;;;;;;;;;;17.77;100.00;99554.88;5034881;28;19943;-65
2022/03/28 10:29:10;;;;;;;;;;;;;;;17.07;100.00;99558.50;5065333;28;19913;-61
2022/03/28 10:31:55;;;;;;;;;;;;;;;17.68;100.00;99550.16;5052735;28;20350;-62
2022/03/28 10:34:39;;;;;;;;;;;;;;;17.32;100.00;99543.31;5068175;28;20011;-62
2022/03/28 10:37:23;;;;;;;;;;;;;;;17.11;100.00;99555.66;5068118;28;19920;-61
2022/03/28 10:39:49;;;;;;;;;;;;;;;17.88;100.00;99543.91;5068700;28;19919;-65
2022/03/28 10:42:19;;;;;;;;;;;;;;;17.44;100.00;99536.63;5068284;28;19954;-62
2022/03/28 10:44:45;;;;;;;;;;;;;;;16.96;100.00;99540.78;5046723;28;20020;-62
2022/03/28 10:47:13;;;;;;;;;;;;;;;16.90;100.00;99543.69;5061310;28;19920;-61
2022/03/28 10:49:39;;;;;;;;;;;;;;;17.20;100.00;99537.91;5048322;28;19939;-62
2022/03/28 10:52:05;;;;;;;;;;;;;;;17.42;100.00;99522.84;5029637;28;19970;-62
2022/03/28 10:54:39;;;;;;;;;;;;;;;17.20;100.00;99532.69;5066423;28;19924;-62
2022/03/28 10:57:04;;;;;;;;;;;;;;;17.03;100.00;99523.94;5064290;28;19920;-61
2022/03/28 10:59:31;;;;;;;;;;;;;;;17.61;100.00;99534.91;5066310;28;21523;-63
2022/03/28 11:01:56;;;;;;;;;;;;;;;17.88;100.00;99520.47;5067491;28;19920;-63
2022/03/28 11:04:23;;;;;;;;;;;;;;;17.77;100.00;99512.34;5065251;28;20412;-63
2022/03/28 11:07:03;;;;;;;;;;;;;;;17.76;100.00;99510.66;5066677;28;19916;-62
2022/03/28 11:09:34;;;;;;;;;;;;;;;18.45;100.00;99503.44;5064819;28;19963;-63
2022/03/28 11:12:01;;;;;;;;;;;;;;;18.89;100.00;99494.88;5064031;28;19916;-61
2022/03/28 11:14:44;;;;;;;;;;;;;;;17.92;100.00;99495.06;5067590;28;19920;-63
2022/03/28 11:17:33;;;;;;;;;;;;;;;18.02;100.00;99492.78;5066180;28;19956;-62
2022/03/28 11:20:08;;;;;;;;;;;;;;;17.85;100.00;99489.34;5056959;28;19920;-63
2022/03/28 11:22:41;;;;;;;;;;;;;;;18.23;100.00;99478.59;5065979;28;20386;-64
2022/03/28 11:25:25;;;;;;;;;;;;;;;18.53;100.00;99485.59;5066096;28;19916;-64
2022/03/28 11:27:51;;;;;;;;;;;;;;;18.21;100.00;99475.22;5066916;28;19921;-64
2022/03/28 11:30:16;;;;;;;;;;;;;;;18.55;100.00;99470.72;5064808;28;19931;-63
2022/03/28 11:32:42;;;;;;;;;;;;;;;18.63;100.00;99465.88;5066054;28;19917;-63
2022/03/28 11:35:13;;;;;;;;;;;;;;;18.33;100.00;99464.09;5062732;28;19925;-63
2022/03/28 11:37:38;;;;;;;;;;;;;;;18.58;100.00;99462.69;5064893;28;19924;-64
2022/03/28 11:40:05;;;;;;;;;;;;;;;18.30;100.00;99453.84;5064579;28;19924;-63
2022/03/28 11:42:31;;;;;;;;;;;;;;;18.17;100.00;99458.06;5066414;28;19921;-64
2022/03/28 11:44:57;;;;;;;;;;;;;;;18.25;100.00;99445.44;5066669;28;19912;-62
2022/03/28 11:47:23;;;;;;;;;;;;;;;18.25;100.00;99448.06;5063961;28;19916;-64
2022/03/28 11:49:53;;;;;;;;;;;;;;;19.10;100.00;99430.97;5065112;28;19921;-64
2022/03/28 11:52:19;;;;;;;;;;;;;;;19.18;100.00;99435.69;5049627;28;19921;-62
2022/03/28 11:54:44;;;;;;;;;;;;;;;19.41;100.00;99422.09;5049062;28;20871;-64
2022/03/28 11:59:54;;;;;;;;;;;;;;;18.54;100.00;99425.53;5065253;28;19985;-63
2022/03/28 12:02:19;;;;;;;;;;;;;;;19.34;100.00;99412.09;5065905;28;20015;-64
2022/03/28 12:04:45;;;;;;;;;;;;;;;19.00;100.00;99419.41;5067550;28;20031;-63
2022/03/28 12:07:11;;;;;;;;;;;;;;;18.80;100.00;99410.97;5061631;28;19921;-63
2022/03/28 12:09:43;;;;;;;;;;;;;;;19.34;100.00;99409.50;5062838;28;19931;-64
2022/03/28 12:12:09;;;;;;;;;;;;;;;19.32;100.00;99400.94;5018372;28;20397;-62
2022/03/28 12:14:34;;;;;;;;;;;;;;;19.22;100.00;99403.25;5064541;28;20011;-63
2022/03/28 12:16:59;;;;;;;;;;;;;;;18.96;100.00;99392.63;5064792;28;20032;-62
2022/03/28 12:19:27;;;;;;;;;;;;;;;18.94;100.00;99396.28;5066019;28;19943;-63
2022/03/28 12:21:54;;;;;;;;;;;;;;;19.31;100.00;99380.97;5066100;28;19913;-62
2022/03/28 12:24:20;;;;;;;;;;;;;;;20.05;100.00;99375.38;5045243;28;19927;-63
2022/03/28 12:26:47;;;;;;;;;;;;;;;21.53;100.00;99365.41;5065873;28;19913;-64
2022/03/28 12:29:12;;;;;;;;;;;;;;;20.05;100.00;99359.69;5066829;28;19956;-63
2022/03/28 12:31:41;;;;;;;;;;;;;;;21.26;100.00;99355.91;5066727;28;20358;-64
2022/03/28 12:34:06;;;;;;;;;;;;;;;20.75;100.00;99348.09;5066997;28;20069;-64
2022/03/28 12:36:34;;;;;;;;;;;;;;;18.71;100.00;99354.09;5066357;28;20015;-63
2022/03/28 12:39:22;;;;;;;;;;;;;;;19.33;100.00;99355.59;5065675;28;19921;-63